createdAt,value
2022-12-09T00:02:29.422Z,42.03
2022-12-09T00:05:31.974Z,41.92
2022-12-09T00:08:34.415Z,37.70
2022-12-09T00:11:37.979Z,40.38
2022-12-09T00:14:40.188Z,35.83
2022-12-09T00:17:42.860Z,40.20
2022-12-09T00:20:45.008Z,39.92
2022-12-09T00:23:48.226Z,39.83
2022-12-09T00:26:50.482Z,40.33
2022-12-09T00:29:53.132Z,39.90
2022-12-09T00:32:55.313Z,43.30
2022-12-09T00:36:09.748Z,45.22
2022-12-09T00:39:16.994Z,40.25
2022-12-09T00:42:19.746Z,45.28
2022-12-09T00:45:22.992Z,46.63
2022-12-09T00:48:26.309Z,38.17
2022-12-09T00:51:28.552Z,41.85
2022-12-09T00:54:31.385Z,37.10
2022-12-09T00:57:34.172Z,43.83
2022-12-09T01:00:36.793Z,43.40
2022-12-09T01:03:39.690Z,45.22
2022-12-09T01:06:44.101Z,46.90
2022-12-09T01:09:46.597Z,44.97
2022-12-09T01:12:49.435Z,42.25
2022-12-09T01:15:51.710Z,46.60
2022-12-09T01:18:57.329Z,43.55
2022-12-09T01:21:59.620Z,41.53
2022-12-09T01:25:02.564Z,45.33
2022-12-09T01:28:05.068Z,42.38
2022-12-09T01:31:17.869Z,41.63
2022-12-09T01:34:20.307Z,42.33
2022-12-09T01:37:22.882Z,41.72
2022-12-09T01:40:25.160Z,39.50
2022-12-09T01:43:29.354Z,49.35
2022-12-09T01:46:31.990Z,44.75
2022-12-09T01:49:41.485Z,40.70
2022-12-09T01:55:48.776Z,45.22
2022-12-09T01:58:53.855Z,43.10
2022-12-09T02:01:59.950Z,43.30
2022-12-09T02:05:03.523Z,44.85
2022-12-09T02:08:17.318Z,45.60
2022-12-09T02:11:42.505Z,46.42
2022-12-09T02:15:01.532Z,43.97
2022-12-09T02:18:15.798Z,46.10
2022-12-09T02:21:43.391Z,48.42
2022-12-09T02:24:59.061Z,41.63
2022-12-09T02:28:35.138Z,45.38
2022-12-09T02:31:53.347Z,41.67
2022-12-09T02:35:13.007Z,46.70
2022-12-09T02:38:23.968Z,45.58
2022-12-09T02:41:29.290Z,39.85
2022-12-09T02:44:35.931Z,45.40
2022-12-09T02:47:44.823Z,44.45
2022-12-09T02:50:51.240Z,44.85
2022-12-09T02:53:58.487Z,49.67
2022-12-09T02:57:07.182Z,44.37
2022-12-09T03:00:14.091Z,46.83
2022-12-09T03:03:19.162Z,45.72
2022-12-09T03:06:28.427Z,42.42
2022-12-09T03:09:34.949Z,43.87
2022-12-09T03:12:40.729Z,49.25
2022-12-09T03:15:49.333Z,52.45
2022-12-09T03:18:58.758Z,45.07
2022-12-09T03:22:07.670Z,47.62
2022-12-09T03:25:17.799Z,47.72
2022-12-09T03:28:24.986Z,46.47
2022-12-09T03:31:30.875Z,52.62
2022-12-09T03:34:39.062Z,52.13
2022-12-09T03:37:43.426Z,45.80
2022-12-09T03:40:50.212Z,52.28
2022-12-09T03:44:23.867Z,48.87
2022-12-09T03:47:27.694Z,48.22
2022-12-09T03:50:40.064Z,52.38
2022-12-09T03:53:48.053Z,46.88
2022-12-09T03:56:54.947Z,47.08
2022-12-09T04:00:01.732Z,46.90
2022-12-09T04:03:06.440Z,48.25
2022-12-09T04:06:08.948Z,49.10
2022-12-09T04:09:12.147Z,49.15
2022-12-09T04:12:14.608Z,47.05
2022-12-09T04:15:17.037Z,51.08
2022-12-09T04:18:19.942Z,56.40
2022-12-09T04:21:22.317Z,48.97
2022-12-09T04:24:24.946Z,49.97
2022-12-09T04:27:27.479Z,48.55
2022-12-09T04:30:29.955Z,63.13
2022-12-09T04:33:33.205Z,73.12
2022-12-09T04:36:35.759Z,49.83
2022-12-09T04:39:37.957Z,49.95
2022-12-09T04:42:41.209Z,50.10
2022-12-09T04:45:43.415Z,52.60
2022-12-09T04:48:47.262Z,52.30
2022-12-09T04:51:49.727Z,50.80
2022-12-09T04:54:52.211Z,57.05
2022-12-09T04:57:54.377Z,44.38
2022-12-09T05:00:57.443Z,51.37
2022-12-09T05:03:59.972Z,47.20
2022-12-09T05:07:03.156Z,59.40
2022-12-09T05:10:06.808Z,48.38
2022-12-09T05:13:09.839Z,49.13
2022-12-09T05:16:17.029Z,51.05
2022-12-09T05:19:20.277Z,55.17
2022-12-09T05:22:22.811Z,67.30
2022-12-09T05:25:25.534Z,53.45
2022-12-09T05:28:28.000Z,55.05
2022-12-09T05:31:31.130Z,50.20
2022-12-09T05:34:33.849Z,59.10
2022-12-09T05:37:36.368Z,57.62
2022-12-09T05:40:38.722Z,56.08
2022-12-09T05:43:41.666Z,60.50
2022-12-09T05:46:44.240Z,62.97
2022-12-09T05:49:47.067Z,59.40
2022-12-09T05:52:50.060Z,78.12
2022-12-09T05:55:53.342Z,59.80
2022-12-09T05:58:56.546Z,66.37
2022-12-09T06:02:00.637Z,51.10
2022-12-09T06:05:08.020Z,55.55
2022-12-09T06:08:10.856Z,64.90
2022-12-09T06:11:20.307Z,51.05
2022-12-09T06:14:23.059Z,64.32
2022-12-09T06:17:25.688Z,49.55
2022-12-09T06:20:27.988Z,55.47
2022-12-09T06:23:30.974Z,66.15
2022-12-09T06:26:33.297Z,56.30
2022-12-09T06:29:35.996Z,51.37
2022-12-09T06:32:38.381Z,52.30
2022-12-09T06:35:41.653Z,53.60
2022-12-09T06:38:44.464Z,57.90
2022-12-09T06:41:47.338Z,60.17
2022-12-09T06:44:50.054Z,59.20
2022-12-09T06:47:52.905Z,49.55
2022-12-09T06:50:56.169Z,54.13
2022-12-09T06:53:58.818Z,53.00
2022-12-09T06:57:01.280Z,54.60
2022-12-09T07:00:05.682Z,59.42
2022-12-09T07:03:10.352Z,57.80
2022-12-09T07:06:26.853Z,62.28
2022-12-09T07:09:29.485Z,50.75
2022-12-09T07:12:32.201Z,61.15
2022-12-09T07:15:34.525Z,47.47
2022-12-09T07:18:37.388Z,56.37
2022-12-09T07:21:40.091Z,60.80
2022-12-09T07:24:46.348Z,50.10
2022-12-09T07:27:49.064Z,50.53
2022-12-09T07:30:52.502Z,50.25
2022-12-09T07:33:57.693Z,45.58
2022-12-09T07:37:01.132Z,50.90
2022-12-09T07:40:04.767Z,51.17
2022-12-09T07:43:07.719Z,44.47
2022-12-09T07:46:14.094Z,43.15
2022-12-09T07:49:17.471Z,46.20
2022-12-09T07:52:20.473Z,51.42
2022-12-09T07:55:24.049Z,46.47
2022-12-09T07:58:26.481Z,58.83
2022-12-09T08:01:30.431Z,46.72
2022-12-09T08:04:35.695Z,52.97
2022-12-09T08:07:43.934Z,50.78
2022-12-09T08:10:47.607Z,51.08
2022-12-09T08:13:50.461Z,50.12
2022-12-09T08:16:53.912Z,48.75
2022-12-09T08:19:56.580Z,49.60
2022-12-09T08:22:59.378Z,47.80
2022-12-09T08:26:01.795Z,46.05
2022-12-09T08:29:09.132Z,51.33
2022-12-09T08:32:11.442Z,47.83
2022-12-09T08:35:15.233Z,46.72
2022-12-09T08:38:17.957Z,50.00
2022-12-09T08:41:37.541Z,46.42
2022-12-09T08:47:43.682Z,42.53
2022-12-09T08:50:46.223Z,46.92
2022-12-09T08:53:50.012Z,43.35
2022-12-09T08:56:57.868Z,55.58
2022-12-09T09:00:00.691Z,45.97
2022-12-09T09:03:03.995Z,41.03
2022-12-09T09:06:10.688Z,48.42
2022-12-09T09:09:14.501Z,46.45
2022-12-09T09:12:17.575Z,42.28
2022-12-09T09:15:20.165Z,39.33
2022-12-09T09:18:22.944Z,45.63
2022-12-09T09:21:27.110Z,48.38
2022-12-09T09:24:30.143Z,43.47
2022-12-09T09:27:34.120Z,41.85
2022-12-09T09:30:38.417Z,48.13
2022-12-09T09:33:41.713Z,41.50
2022-12-09T09:36:44.960Z,40.53
2022-12-09T09:39:47.259Z,35.78
2022-12-09T09:42:53.540Z,41.85
2022-12-09T09:45:58.657Z,41.17
2022-12-09T09:49:04.101Z,34.38
2022-12-09T09:52:16.977Z,37.08
2022-12-09T09:55:33.946Z,37.72
2022-12-09T09:58:54.084Z,38.20
2022-12-09T10:02:13.008Z,37.65
2022-12-09T10:08:36.870Z,38.72
2022-12-09T10:12:00.907Z,34.58
2022-12-09T10:15:14.273Z,34.20
2022-12-09T10:18:29.853Z,38.03
2022-12-09T10:21:32.883Z,38.40
2022-12-09T10:24:46.759Z,44.88
2022-12-09T10:28:37.977Z,39.05
2022-12-09T10:31:41.300Z,32.80
2022-12-09T10:34:44.296Z,40.25
2022-12-09T10:37:49.172Z,32.50
2022-12-09T10:41:13.209Z,37.67
2022-12-09T10:44:24.694Z,30.48
2022-12-09T10:47:29.435Z,30.40
2022-12-09T10:50:37.277Z,33.30
2022-12-09T10:54:04.298Z,27.77
2022-12-09T10:57:13.644Z,34.63
2022-12-09T11:03:56.215Z,33.97
2022-12-09T11:07:07.718Z,28.35
2022-12-09T11:10:20.790Z,33.28
2022-12-09T11:13:37.806Z,31.77
2022-12-09T11:16:40.923Z,32.55
2022-12-09T11:19:47.230Z,30.80
2022-12-09T11:23:01.630Z,28.42
2022-12-09T11:26:06.898Z,27.05
2022-12-09T11:29:22.174Z,33.42
2022-12-09T11:32:24.573Z,25.50
2022-12-09T11:35:34.331Z,27.95
2022-12-09T11:38:43.494Z,29.02
2022-12-09T11:42:16.522Z,28.50
2022-12-09T11:45:28.065Z,33.67
2022-12-09T11:48:38.786Z,27.00
2022-12-09T11:52:03.858Z,30.17
2022-12-09T11:55:15.171Z,34.13
2022-12-09T11:58:27.134Z,29.27
2022-12-09T12:01:52.349Z,24.55
2022-12-09T12:05:21.908Z,27.92
2022-12-09T12:08:47.649Z,28.15
2022-12-09T12:12:02.853Z,21.05
2022-12-09T12:15:20.691Z,23.00
2022-12-09T12:18:24.002Z,23.70
2022-12-09T12:22:03.597Z,28.15
2022-12-09T12:25:18.229Z,24.17
2022-12-09T12:28:27.308Z,28.45
2022-12-09T12:31:51.639Z,25.58
2022-12-09T12:35:04.588Z,24.00
2022-12-09T12:38:15.961Z,39.28
2022-12-09T12:41:54.120Z,27.02
2022-12-09T12:45:35.022Z,28.80
2022-12-09T12:52:54.509Z,29.15
2022-12-09T12:56:01.163Z,27.30
2022-12-09T12:59:09.595Z,38.40
2022-12-09T13:03:03.122Z,31.37
2022-12-09T13:06:13.914Z,31.12
2022-12-09T13:09:39.037Z,25.05
2022-12-09T13:12:56.716Z,26.48
2022-12-09T13:16:04.777Z,37.47
2022-12-09T13:19:15.182Z,29.00
2022-12-09T13:22:27.437Z,25.50
2022-12-09T13:25:44.187Z,26.40
2022-12-09T13:29:12.774Z,30.83
2022-12-09T13:32:38.194Z,31.02
2022-12-09T13:36:02.692Z,24.33
2022-12-09T13:39:12.878Z,28.40
2022-12-09T13:42:46.981Z,33.83
2022-12-09T13:45:55.665Z,27.65
2022-12-09T13:48:58.094Z,32.60
2022-12-09T13:52:00.987Z,28.75
2022-12-09T13:55:03.821Z,31.55
2022-12-09T13:58:22.151Z,36.28
2022-12-09T14:01:31.361Z,34.83
2022-12-09T14:04:42.097Z,32.10
2022-12-09T14:08:19.867Z,33.33
2022-12-09T14:11:37.477Z,33.83
2022-12-09T14:14:51.756Z,31.60
2022-12-09T14:18:03.522Z,36.97
2022-12-09T14:21:17.827Z,36.95
2022-12-09T14:24:20.264Z,32.65
2022-12-09T14:27:29.807Z,40.50
2022-12-09T14:30:35.357Z,35.65
2022-12-09T14:33:42.963Z,33.20
2022-12-09T14:36:54.777Z,31.25
2022-12-09T14:40:17.256Z,35.88
2022-12-09T14:43:45.728Z,30.98
2022-12-09T14:46:54.370Z,37.25
2022-12-09T14:50:08.433Z,34.60
2022-12-09T14:53:24.898Z,31.27
2022-12-09T14:56:31.082Z,28.60
2022-12-09T14:59:34.399Z,29.60
2022-12-09T15:02:36.937Z,31.50
2022-12-09T15:05:39.038Z,32.83
2022-12-09T15:08:42.833Z,32.35
2022-12-09T15:11:45.146Z,31.85
2022-12-09T15:14:53.212Z,29.35
2022-12-09T15:18:08.527Z,34.95
2022-12-09T15:21:21.770Z,27.50
2022-12-09T15:24:25.302Z,35.15
2022-12-09T15:27:31.387Z,34.85
2022-12-09T15:30:36.517Z,36.58
2022-12-09T15:33:41.765Z,35.50
2022-12-09T15:36:49.925Z,37.63
2022-12-09T15:40:02.340Z,33.72
2022-12-09T15:43:09.704Z,32.03
2022-12-09T15:46:13.461Z,35.47
2022-12-09T15:49:20.707Z,33.55
2022-12-09T15:52:30.759Z,31.62
2022-12-09T15:55:42.133Z,33.30
2022-12-09T15:58:51.336Z,25.73
2022-12-09T16:01:56.430Z,33.50
2022-12-09T16:05:03.878Z,30.42
2022-12-09T16:08:06.008Z,30.15
2022-12-09T16:11:08.646Z,29.50
2022-12-09T16:14:11.644Z,29.12
2022-12-09T16:17:28.691Z,28.98
2022-12-09T16:20:39.193Z,28.17
2022-12-09T16:23:46.777Z,32.92
2022-12-09T16:26:51.349Z,30.20
2022-12-09T16:29:56.511Z,29.63
2022-12-09T16:33:01.116Z,28.27
2022-12-09T16:36:06.832Z,31.40
2022-12-09T16:39:08.986Z,26.42
2022-12-09T16:42:22.700Z,28.67
2022-12-09T16:45:37.694Z,27.67
2022-12-09T16:48:40.205Z,24.05
2022-12-09T16:51:42.433Z,28.87
2022-12-09T16:54:46.892Z,28.02
2022-12-09T16:57:49.273Z,28.85
2022-12-09T17:00:52.480Z,26.70
2022-12-09T17:04:04.243Z,24.48
2022-12-09T17:07:06.784Z,25.85
2022-12-09T17:10:12.446Z,24.92
2022-12-09T17:13:14.827Z,25.83
2022-12-09T17:16:17.531Z,28.67
2022-12-09T17:19:20.389Z,28.70
2022-12-09T17:22:22.557Z,25.65
2022-12-09T17:25:24.970Z,25.20
2022-12-09T17:28:30.149Z,28.50
2022-12-09T17:31:32.956Z,26.27
2022-12-09T17:34:35.176Z,30.12
2022-12-09T17:37:37.666Z,25.67
2022-12-09T17:40:39.750Z,28.58
2022-12-09T17:43:43.139Z,28.00
2022-12-09T17:46:45.262Z,25.45
2022-12-09T17:49:47.635Z,21.45
2022-12-09T17:52:49.763Z,25.52
2022-12-09T17:55:52.198Z,33.53
2022-12-09T17:59:00.894Z,25.30
2022-12-09T18:02:04.561Z,22.42
2022-12-09T18:05:07.633Z,25.70
2022-12-09T18:08:09.830Z,28.27
2022-12-09T18:11:12.261Z,19.37
2022-12-09T18:14:15.102Z,18.92
2022-12-09T18:17:17.501Z,21.70
2022-12-09T18:20:19.682Z,18.35
2022-12-09T18:23:22.131Z,20.67
2022-12-09T18:26:30.098Z,17.40
2022-12-09T18:29:33.883Z,18.83
2022-12-09T18:32:36.478Z,21.45
2022-12-09T18:35:41.994Z,15.63
2022-12-09T18:38:44.794Z,19.92
2022-12-09T18:41:47.635Z,15.43
2022-12-09T18:44:50.116Z,16.12
2022-12-09T18:47:52.519Z,16.17
2022-12-09T18:50:54.608Z,16.35
2022-12-09T18:53:58.756Z,20.95
2022-12-09T18:57:01.997Z,15.98
2022-12-09T19:00:05.264Z,16.55
2022-12-09T19:03:07.818Z,13.95
2022-12-09T19:06:29.638Z,17.58
2022-12-09T19:09:34.887Z,17.17
2022-12-09T19:12:56.510Z,15.63
2022-12-09T19:16:04.273Z,14.00
2022-12-09T19:19:10.520Z,13.90
2022-12-09T19:22:12.889Z,16.60
2022-12-09T19:25:15.332Z,16.02
2022-12-09T19:28:17.517Z,14.80
2022-12-09T19:31:23.398Z,11.90
2022-12-09T19:34:30.481Z,14.82
2022-12-09T19:37:32.849Z,10.50
2022-12-09T19:40:37.097Z,11.45
2022-12-09T19:43:39.555Z,14.57
2022-12-09T19:46:41.756Z,14.02
2022-12-09T19:49:44.493Z,13.57
2022-12-09T19:52:46.694Z,12.00
2022-12-09T19:55:49.259Z,13.40
2022-12-09T19:58:52.477Z,14.07
2022-12-09T20:01:55.552Z,9.90
2022-12-09T20:04:58.052Z,11.65
2022-12-09T20:08:00.272Z,13.60
2022-12-09T20:11:03.512Z,10.05
2022-12-09T20:14:07.254Z,11.98
2022-12-09T20:17:09.718Z,12.63
2022-12-09T20:20:12.032Z,11.10
2022-12-09T20:23:14.745Z,9.35
2022-12-09T20:26:22.905Z,8.43
2022-12-09T20:29:25.454Z,9.90
2022-12-09T20:32:29.795Z,7.62
2022-12-09T20:35:32.307Z,7.87
2022-12-09T20:38:35.243Z,8.13
2022-12-09T20:41:37.839Z,8.52
2022-12-09T20:44:39.983Z,14.50
2022-12-09T20:47:42.441Z,7.20
2022-12-09T20:50:44.745Z,6.35
2022-12-09T20:53:48.748Z,7.55
2022-12-09T20:56:51.014Z,6.55
2022-12-09T20:59:53.431Z,6.85
2022-12-09T21:02:56.301Z,6.07
2022-12-09T21:05:58.875Z,7.25
2022-12-09T21:09:06.252Z,7.50
2022-12-09T21:12:08.743Z,5.85
2022-12-09T21:15:11.634Z,6.35
2022-12-09T21:18:14.014Z,6.40
2022-12-09T21:21:18.347Z,7.35
2022-12-09T21:24:21.865Z,7.05
2022-12-09T21:27:24.005Z,6.45
2022-12-09T21:30:27.337Z,7.25
2022-12-09T21:33:29.493Z,7.25
2022-12-09T21:36:35.613Z,9.18
2022-12-09T21:39:37.781Z,6.03
2022-12-09T21:42:40.291Z,6.62
2022-12-09T21:45:42.416Z,6.70
2022-12-09T21:48:50.592Z,9.20
2022-12-09T21:51:54.447Z,6.37
2022-12-09T21:54:58.085Z,6.10
2022-12-09T21:58:00.146Z,11.70
2022-12-09T22:01:15.028Z,11.65
2022-12-09T22:04:18.096Z,5.97
2022-12-09T22:07:20.225Z,8.35
2022-12-09T22:10:22.611Z,9.07
2022-12-09T22:13:25.639Z,7.35
2022-12-09T22:16:31.735Z,6.72
2022-12-09T22:19:33.869Z,11.07
2022-12-09T22:22:38.661Z,8.25
2022-12-09T22:25:40.907Z,8.10
2022-12-09T22:28:43.450Z,6.25
2022-12-09T22:31:46.512Z,9.20
2022-12-09T22:34:48.962Z,9.05
2022-12-09T22:37:51.041Z,8.88
2022-12-09T22:40:53.480Z,8.25
2022-12-09T22:43:56.494Z,7.53
2022-12-09T22:46:58.894Z,8.45
2022-12-09T22:50:01.033Z,12.85
2022-12-09T22:53:03.483Z,8.15
2022-12-09T22:56:06.147Z,13.93
2022-12-09T22:59:09.326Z,7.80
2022-12-09T23:02:11.565Z,13.05
2022-12-09T23:05:14.062Z,12.20
2022-12-09T23:08:16.376Z,8.35
2022-12-09T23:11:24.555Z,9.85
2022-12-09T23:14:26.710Z,10.73
2022-12-09T23:17:29.371Z,8.45
2022-12-09T23:20:32.311Z,12.80
2022-12-09T23:23:34.744Z,17.48
2022-12-09T23:26:42.407Z,12.30
2022-12-09T23:29:45.726Z,12.10
2022-12-09T23:32:47.901Z,14.07
2022-12-09T23:35:50.280Z,13.68
2022-12-09T23:38:53.726Z,14.43
2022-12-09T23:41:56.201Z,13.00
2022-12-09T23:44:58.301Z,14.48
2022-12-09T23:48:00.804Z,11.90
2022-12-09T23:51:14.450Z,14.43
2022-12-09T23:54:18.194Z,12.93
2022-12-09T23:57:20.550Z,13.50
